Time;durP1;ratioP1;P1;durP2;ratioP2;P2;SDS_P1;SDS_P2;PMS_P1;PMS_P2;Temp;Humidity;BMP_temperature;BMP_pressure;BME280_temperature;BME280_humidity;BME280_pressure;Samples;Min_cycle;Max_cycle;Signal;HPM_P1;HPM_P2
2023/04/24 00:02:18;;;;;;;;;1.00;1.00;;;;;22.51;34.53;100520.34;5076976;28;45296;-75
2023/04/24 00:04:46;;;;;;;;;0.00;0.00;;;;;22.47;34.48;100505.03;5076800;27;45466;-75
2023/04/24 00:07:12;;;;;;;;;1.00;1.00;;;;;22.53;35.26;100525.47;5076410;27;45311;-76
2023/04/24 00:09:38;;;;;;;;;1.00;1.00;;;;;22.44;34.96;100508.06;5058368;28;45417;-75
2023/04/24 00:12:04;;;;;;;;;1.00;1.00;;;;;22.30;34.90;100494.72;5076562;27;45271;-76
2023/04/24 00:14:33;;;;;;;;;1.00;1.00;;;;;22.52;34.78;100529.13;5076603;28;46541;-75
2023/04/24 00:16:58;;;;;;;;;1.00;1.00;;;;;22.42;34.58;100518.03;5076377;28;45542;-76
2023/04/24 00:19:23;;;;;;;;;2.00;0.33;;;;;22.52;34.75;100531.78;5076648;28;45632;-75
2023/04/24 00:21:51;;;;;;;;;0.00;0.00;;;;;22.52;34.91;100539.75;5076224;28;45519;-75
2023/04/24 00:24:18;;;;;;;;;0.33;0.33;;;;;22.48;34.73;100541.13;5058603;28;46753;-75
2023/04/24 00:26:43;;;;;;;;;1.00;1.00;;;;;22.52;35.20;100545.03;5076186;27;45365;-76
2023/04/24 00:29:08;;;;;;;;;1.00;1.00;;;;;22.52;35.06;100555.66;5076495;27;45407;-75
2023/04/24 00:31:36;;;;;;;;;1.00;1.00;;;;;22.44;34.59;100542.50;5076131;28;45383;-76
2023/04/24 00:34:02;;;;;;;;;0.33;0.33;;;;;22.47;34.65;100544.78;5076370;28;45157;-75
2023/04/24 00:36:28;;;;;;;;;1.33;1.00;;;;;22.41;35.13;100535.75;5075879;27;45307;-76
2023/04/24 00:38:54;;;;;;;;;0.67;0.67;;;;;22.37;35.19;100537.16;5075983;28;45344;-75
2023/04/24 00:41:21;;;;;;;;;1.00;1.00;;;;;22.52;34.86;100556.47;5076396;27;45375;-76
2023/04/24 00:43:46;;;;;;;;;1.00;0.67;;;;;22.45;35.05;100545.00;5075939;27;47229;-75
2023/04/24 00:46:12;;;;;;;;;0.33;0.33;;;;;22.42;34.79;100536.59;5076186;28;45470;-76
2023/04/24 00:48:39;;;;;;;;;0.33;0.33;;;;;22.42;34.97;100536.59;5076394;28;45288;-76
2023/04/24 00:51:04;;;;;;;;;1.00;1.00;;;;;22.52;34.60;100558.28;5075326;28;45502;-75
2023/04/24 00:53:30;;;;;;;;;0.00;0.00;;;;;22.45;34.54;100550.28;5075771;27;47083;-75
2023/04/24 00:55:56;;;;;;;;;1.00;1.00;;;;;22.51;35.02;100569.91;5076019;28;45503;-76
2023/04/24 00:58:22;;;;;;;;;1.33;0.33;;;;;22.50;34.77;100566.44;5076208;27;45403;-75
2023/04/24 01:00:52;;;;;;;;;1.00;1.00;;;;;22.38;34.78;100549.38;5076023;28;45344;-76
2023/04/24 01:03:20;;;;;;;;;1.00;1.00;;;;;22.38;35.21;100554.69;5075628;28;46976;-75
2023/04/24 01:05:46;;;;;;;;;1.00;1.00;;;;;22.43;35.12;100556.81;5075431;27;45404;-75
2023/04/24 01:08:11;;;;;;;;;0.67;0.67;;;;;22.47;34.79;100563.34;5075915;28;45505;-75
2023/04/24 01:10:40;;;;;;;;;2.00;0.00;;;;;22.42;34.92;100557.78;5075890;28;45470;-76
2023/04/24 01:13:07;;;;;;;;;1.00;1.00;;;;;22.45;35.07;100566.19;5075669;28;46961;-77
2023/04/24 01:15:33;;;;;;;;;1.67;1.67;;;;;22.47;34.58;100573.94;5075652;28;45472;-75
2023/04/24 01:17:58;;;;;;;;;2.67;1.00;;;;;22.50;34.53;100573.56;5075836;28;45368;-75
2023/04/24 01:20:25;;;;;;;;;0.67;0.00;;;;;22.47;34.58;100577.44;5075505;28;45417;-76
2023/04/24 01:22:52;;;;;;;;;1.67;1.67;;;;;22.49;34.61;100582.53;5075607;28;45582;-76
2023/04/24 01:25:18;;;;;;;;;1.00;1.00;;;;;22.48;34.83;100576.41;5075664;28;45293;-75
2023/04/24 01:27:43;;;;;;;;;0.00;0.00;;;;;22.40;34.59;100561.44;5075542;27;45424;-75
2023/04/24 01:30:09;;;;;;;;;1.00;1.00;;;;;22.36;34.53;100573.44;5057255;28;45397;-76
2023/04/24 01:32:36;;;;;;;;;1.00;1.00;;;;;22.39;35.15;100573.06;5075419;27;46182;-76
2023/04/24 01:35:01;;;;;;;;;0.33;0.33;;;;;22.44;35.10;100577.81;5075133;28;45375;-76
2023/04/24 01:37:27;;;;;;;;;0.67;0.67;;;;;22.48;34.63;100573.75;5075598;27;45434;-73
2023/04/24 01:39:52;;;;;;;;;1.00;1.00;;;;;22.40;34.87;100574.69;5075571;28;45376;-75
2023/04/24 01:42:18;;;;;;;;;0.00;0.00;;;;;22.49;35.01;100595.78;5075260;28;46217;-75
2023/04/24 01:44:43;;;;;;;;;1.33;0.33;;;;;22.48;34.70;100588.88;5075619;28;45396;-75
2023/04/24 01:47:09;;;;;;;;;1.00;1.00;;;;;22.46;35.31;100581.06;5075482;28;45376;-75
2023/04/24 01:49:35;;;;;;;;;0.00;0.00;;;;;22.38;35.21;100568.78;5074980;27;45417;-76
2023/04/24 01:52:00;;;;;;;;;2.00;0.00;;;;;22.50;34.93;100584.19;5075170;28;46210;-75
2023/04/24 01:54:26;;;;;;;;;0.00;0.00;;;;;22.40;35.08;100579.19;5075363;27;45289;-75
2023/04/24 01:56:51;;;;;;;;;0.67;0.67;;;;;22.50;34.67;100594.78;5075487;28;45283;-75
2023/04/24 01:59:17;;;;;;;;;0.00;0.00;;;;;22.50;34.80;100590.31;5075386;28;45478;-75
2023/04/24 02:01:42;;;;;;;;;0.00;0.00;;;;;22.51;35.24;100599.06;5075119;28;45962;-76
2023/04/24 02:04:08;;;;;;;;;0.67;0.67;;;;;22.35;35.26;100581.59;5077385;28;45348;-75
2023/04/24 02:06:34;;;;;;;;;1.00;1.00;;;;;22.47;34.70;100603.94;5078649;27;45396;-76
2023/04/24 02:08:59;;;;;;;;;0.67;0.67;;;;;22.51;34.54;100613.16;5078646;28;45338;-76
2023/04/24 02:11:25;;;;;;;;;1.00;1.00;;;;;22.43;34.75;100600.00;5078419;28;45313;-76
2023/04/24 02:13:51;;;;;;;;;2.00;2.00;;;;;22.44;35.13;100599.00;5078322;28;45443;-76
2023/04/24 02:16:17;;;;;;;;;1.00;1.00;;;;;22.52;35.13;100619.28;5078510;27;45297;-75
2023/04/24 02:18:42;;;;;;;;;1.00;1.00;;;;;22.53;34.77;100620.94;5078000;27;45332;-76
2023/04/24 02:21:07;;;;;;;;;0.00;0.00;;;;;22.53;34.66;100623.56;5078276;28;45284;-75
2023/04/24 02:23:33;;;;;;;;;0.00;0.00;;;;;22.40;34.52;100608.38;5078356;27;45451;-76
2023/04/24 02:25:58;;;;;;;;;1.00;1.00;;;;;22.52;34.70;100614.78;5078387;27;45355;-76
2023/04/24 02:28:23;;;;;;;;;1.00;1.00;;;;;22.50;35.01;100622.13;5078167;27;45312;-76
2023/04/24 02:30:50;;;;;;;;;1.00;1.00;;;;;22.54;34.89;100632.34;5077826;28;47254;-75
2023/04/24 02:33:15;;;;;;;;;1.00;1.00;;;;;22.51;34.71;100634.34;5077902;27;45313;-73
2023/04/24 02:35:41;;;;;;;;;1.00;1.00;;;;;22.54;34.95;100629.69;5078233;28;45763;-76
2023/04/24 02:38:06;;;;;;;;;0.00;0.00;;;;;22.51;35.00;100628.22;5078140;28;45551;-76
2023/04/24 02:40:31;;;;;;;;;0.00;0.00;;;;;22.54;35.01;100635.81;5078018;28;46098;-75
2023/04/24 02:42:57;;;;;;;;;0.00;0.00;;;;;22.45;35.01;100621.88;5078067;27;45352;-76
2023/04/24 02:45:22;;;;;;;;;2.00;1.00;;;;;22.50;34.93;100627.44;5078147;27;45336;-75
2023/04/24 02:47:48;;;;;;;;;1.00;0.33;;;;;22.42;34.65;100613.47;5077790;27;45476;-75
2023/04/24 02:50:13;;;;;;;;;0.00;0.00;;;;;22.50;34.83;100635.38;5077701;27;50202;-76
2023/04/24 02:52:38;;;;;;;;;0.00;0.00;;;;;22.53;35.09;100631.53;5077970;28;45389;-75
2023/04/24 02:55:05;;;;;;;;;0.00;0.00;;;;;22.39;34.87;100617.31;5077913;27;45384;-74
2023/04/24 02:57:30;;;;;;;;;1.00;0.00;;;;;22.50;35.15;100637.22;5077994;28;45446;-76
2023/04/24 02:59:55;;;;;;;;;2.50;1.00;;;;;22.48;34.53;100632.06;5059285;28;47072;-75
2023/04/24 03:02:21;;;;;;;;;0.00;0.00;;;;;22.54;34.58;100657.03;5077313;27;45474;-75
2023/04/24 03:04:47;;;;;;;;;2.00;2.00;;;;;22.53;35.20;100647.44;5077833;28;45474;-76
2023/04/24 03:07:14;;;;;;;;;2.00;2.00;;;;;22.49;34.61;100652.28;5077711;27;45572;-75
2023/04/24 03:09:40;;;;;;;;;1.00;0.67;;;;;22.51;34.61;100660.88;5077297;27;46691;-75
2023/04/24 03:12:05;;;;;;;;;2.00;2.00;;;;;22.42;34.98;100643.44;5077419;27;45440;-75
2023/04/24 03:14:31;;;;;;;;;0.00;0.00;;;;;22.48;34.84;100666.53;5077515;28;45320;-75
2023/04/24 03:16:56;;;;;;;;;1.00;1.00;;;;;22.46;34.75;100659.78;5077148;27;45350;-76
2023/04/24 03:19:22;;;;;;;;;0.00;0.00;;;;;22.50;34.63;100672.50;5077328;28;46954;-75
2023/04/24 03:21:47;;;;;;;;;1.00;0.67;;;;;22.50;34.63;100669.84;5077325;28;45529;-75
2023/04/24 03:24:13;;;;;;;;;1.00;1.00;;;;;22.47;34.55;100675.53;5077522;28;45289;-75
2023/04/24 03:26:38;;;;;;;;;2.67;2.00;;;;;22.50;35.04;100677.81;5077401;27;45411;-76
2023/04/24 03:29:03;;;;;;;;;1.00;1.00;;;;;22.47;34.59;100666.75;5077285;28;45455;-75
2023/04/24 03:31:29;;;;;;;;;2.00;2.00;;;;;22.49;34.80;100683.28;5076805;28;45309;-76
2023/04/24 03:33:54;;;;;;;;;1.00;1.00;;;;;22.38;34.73;100666.03;5077189;28;45340;-75
2023/04/24 03:36:20;;;;;;;;;0.00;0.00;;;;;22.43;34.50;100679.53;5077236;28;45504;-76
2023/04/24 03:38:45;;;;;;;;;1.00;1.00;;;;;22.49;35.25;100678.78;5076751;28;47318;-75
2023/04/24 03:41:11;;;;;;;;;5.00;1.33;;;;;22.50;34.75;100682.28;5077102;28;45348;-76
2023/04/24 03:43:37;;;;;;;;;0.00;0.00;;;;;22.50;34.60;100679.63;5077095;27;45415;-74
2023/04/24 03:46:02;;;;;;;;;1.00;1.00;;;;;22.37;34.79;100662.56;5058441;28;45513;-76
2023/04/24 03:48:28;;;;;;;;;1.00;1.00;;;;;22.49;34.84;100684.09;5076818;28;46138;-76
2023/04/24 03:50:53;;;;;;;;;1.67;1.67;;;;;22.47;34.35;100677.34;5076826;28;45382;-75
2023/04/24 03:53:19;;;;;;;;;0.67;0.67;;;;;22.51;34.98;100684.72;5058752;28;45448;-75
2023/04/24 03:55:45;;;;;;;;;1.00;1.00;;;;;22.44;35.05;100683.84;5076810;27;45278;-75
2023/04/24 03:58:11;;;;;;;;;1.00;1.00;;;;;22.51;35.16;100691.84;5076644;28;45374;-75
2023/04/24 04:00:37;;;;;;;;;1.00;1.00;;;;;22.41;34.72;100676.25;5076455;27;45362;-75
2023/04/24 04:03:03;;;;;;;;;1.67;1.67;;;;;22.51;35.02;100695.34;5076752;28;45356;-75
2023/04/24 04:05:28;;;;;;;;;0.00;0.00;;;;;22.45;34.86;100685.50;5076727;27;45396;-75
2023/04/24 04:07:54;;;;;;;;;1.00;0.75;;;;;22.52;34.78;100693.50;5076393;28;46332;-75
2023/04/24 04:10:20;;;;;;;;;1.00;1.00;;;;;22.51;35.05;100700.63;5076582;27;45491;-74
2023/04/24 04:12:45;;;;;;;;;0.00;0.00;;;;;22.52;35.07;100698.81;5058361;28;45376;-77
2023/04/24 04:15:10;;;;;;;;;1.33;1.33;;;;;22.43;35.27;100684.84;5076183;27;45499;-76
2023/04/24 04:17:37;;;;;;;;;1.00;1.00;;;;;22.24;35.11;100659.75;5076514;28;46669;-76
2023/04/24 04:20:07;;;;;;;;;0.00;0.00;;;;;22.50;35.17;100701.66;5076428;27;45339;-75
2023/04/24 04:22:32;;;;;;;;;0.00;0.00;;;;;22.40;34.68;100687.88;5076786;28;45511;-75
2023/04/24 04:24:57;;;;;;;;;1.00;1.00;;;;;22.50;34.71;100709.63;5076488;27;45228;-75
2023/04/24 04:27:22;;;;;;;;;1.67;1.00;;;;;22.50;35.10;100709.63;5075815;27;46225;-75
2023/04/24 04:29:48;;;;;;;;;0.67;0.00;;;;;22.49;34.61;100715.09;5076114;27;45364;-75
2023/04/24 04:32:13;;;;;;;;;1.00;1.00;;;;;22.25;34.77;100679.97;5076163;28;45384;-75
2023/04/24 04:34:39;;;;;;;;;1.00;1.00;;;;;22.49;35.18;100717.75;5076276;28;45552;-76
2023/04/24 04:37:05;;;;;;;;;1.00;1.00;;;;;22.47;35.04;100723.25;5057910;28;46079;-76
2023/04/24 04:39:31;;;;;;;;;1.00;1.00;;;;;22.40;34.69;100714.41;5057462;27;45354;-75
2023/04/24 04:41:56;;;;;;;;;1.00;1.00;;;;;22.40;34.48;100725.00;5076149;28;45663;-76
2023/04/24 04:44:23;;;;;;;;;1.00;1.00;;;;;22.49;35.12;100749.56;5075959;27;45329;-77
2023/04/24 04:46:48;;;;;;;;;1.00;1.00;;;;;22.48;34.59;100753.22;5076101;28;47102;-76
2023/04/24 04:49:16;;;;;;;;;1.00;1.00;;;;;22.44;34.96;100752.75;5076188;28;45354;-75
2023/04/24 04:51:41;;;;;;;;;1.00;1.00;;;;;22.35;34.82;100741.44;5075992;28;45406;-75
2023/04/24 04:54:07;;;;;;;;;1.00;1.00;;;;;22.48;35.08;100761.19;5075937;28;45270;-75
2023/04/24 04:56:32;;;;;;;;;1.00;1.00;;;;;22.35;35.12;100740.63;5075720;27;47236;-76
2023/04/24 04:58:59;;;;;;;;;1.00;1.00;;;;;22.43;35.06;100764.38;5075464;28;45381;-76
2023/04/24 05:01:25;;;;;;;;;2.50;1.25;;;;;22.38;34.88;100750.84;5076038;28;45423;-76
2023/04/24 05:03:50;;;;;;;;;0.67;0.67;;;;;22.47;35.29;100773.63;5075753;28;46016;-76
2023/04/24 05:06:16;;;;;;;;;1.00;1.00;;;;;22.36;35.15;100758.16;5075560;28;46210;-76
2023/04/24 05:08:42;;;;;;;;;0.67;0.67;;;;;22.45;34.85;100780.94;5075790;28;45416;-76
2023/04/24 05:11:07;;;;;;;;;1.00;1.00;;;;;22.29;34.53;100756.28;5057661;28;45606;-75
2023/04/24 05:13:33;;;;;;;;;1.75;1.00;;;;;22.32;34.62;100763.03;5075573;28;45396;-76
2023/04/24 05:15:58;;;;;;;;;1.00;1.00;;;;;22.48;34.78;100787.69;5075611;28;46372;-76
2023/04/24 05:18:24;;;;;;;;;3.00;1.00;;;;;22.45;35.15;100788.88;5075543;28;45235;-76
2023/04/24 05:20:49;;;;;;;;;0.67;0.67;;;;;22.48;34.85;100793.78;5075780;28;45392;-76
2023/04/24 05:23:14;;;;;;;;;0.67;0.33;;;;;22.49;34.77;100803.41;5075644;27;45531;-75
2023/04/24 05:25:41;;;;;;;;;1.00;1.00;;;;;22.44;35.27;100799.66;5075422;28;46878;-75
2023/04/24 05:28:06;;;;;;;;;3.33;1.00;;;;;22.46;34.93;100801.13;5075084;27;45332;-75
2023/04/24 05:30:32;;;;;;;;;1.00;1.00;;;;;22.50;35.22;100810.38;5075261;28;45322;-75
2023/04/24 05:32:57;;;;;;;;;1.00;1.00;;;;;22.45;34.51;100806.63;5075520;27;45210;-76
2023/04/24 05:35:22;;;;;;;;;2.00;2.00;;;;;22.42;35.10;100813.09;5075536;28;46067;-75
2023/04/24 05:37:48;;;;;;;;;1.00;1.00;;;;;22.36;34.90;100806.69;5075700;27;45479;-75
2023/04/24 05:40:13;;;;;;;;;1.50;1.50;;;;;22.50;35.14;100833.41;5079096;28;45292;-76
2023/04/24 05:42:39;;;;;;;;;1.00;1.00;;;;;22.35;34.69;100796.28;5078687;27;45304;-75
2023/04/24 05:45:05;;;;;;;;;1.00;1.00;;;;;22.51;35.25;100835.03;5078848;28;46300;-74
2023/04/24 05:47:31;;;;;;;;;1.00;1.00;;;;;22.38;34.66;100825.91;5078399;27;45410;-76
2023/04/24 05:49:56;;;;;;;;;0.33;0.33;;;;;22.49;35.21;100845.81;5078842;28;45418;-74
2023/04/24 05:52:21;;;;;;;;;2.00;1.00;;;;;22.49;34.63;100850.31;5078811;27;45488;-74
2023/04/24 05:54:47;;;;;;;;;3.00;3.00;;;;;22.39;34.82;100838.16;5077880;28;46115;-76
2023/04/24 05:57:12;;;;;;;;;2.00;0.67;;;;;22.49;35.41;100852.94;5078252;27;45443;-76
2023/04/24 05:59:38;;;;;;;;;0.00;0.00;;;;;22.49;35.31;100863.56;5078856;27;45359;-75
2023/04/24 06:02:04;;;;;;;;;1.33;1.33;;;;;22.40;35.06;100849.59;5078570;28;45421;-75
2023/04/24 06:04:29;;;;;;;;;2.00;2.00;;;;;22.48;34.79;100873.34;5078469;27;45395;-76
2023/04/24 06:06:55;;;;;;;;;3.33;1.00;;;;;22.39;34.77;100867.31;5078456;27;45296;-76
2023/04/24 06:09:25;;;;;;;;;1.00;1.00;;;;;22.46;34.95;100878.00;5078726;27;45339;-76
2023/04/24 06:11:54;;;;;;;;;0.33;0.33;;;;;22.49;35.14;100876.81;5078212;28;45338;-76
2023/04/24 06:14:19;;;;;;;;;2.33;2.00;;;;;22.48;35.29;100869.88;5078308;27;46483;-76
2023/04/24 06:16:45;;;;;;;;;2.00;2.00;;;;;22.48;34.84;100875.97;5078293;28;45318;-75
2023/04/24 06:19:10;;;;;;;;;2.00;2.00;;;;;22.48;34.87;100873.34;5078505;27;45380;-75
2023/04/24 06:21:35;;;;;;;;;2.00;2.00;;;;;22.17;34.77;100835.38;5078264;28;45289;-76
2023/04/24 06:24:01;;;;;;;;;1.67;1.67;;;;;22.35;35.01;100866.00;5077899;28;45290;-76
2023/04/24 06:26:27;;;;;;;;;1.33;1.33;;;;;22.39;34.85;100875.25;5078088;27;45385;-76
2023/04/24 06:28:56;;;;;;;;;2.00;2.00;;;;;22.48;34.72;100889.25;5078292;27;45379;-76
2023/04/24 06:31:21;;;;;;;;;1.33;1.00;;;;;22.45;35.38;100886.16;5078422;27;45663;-76
2023/04/24 06:33:48;;;;;;;;;1.00;1.00;;;;;22.49;35.13;100895.38;5077721;27;46088;-75
2023/04/24 06:36:13;;;;;;;;;2.00;2.00;;;;;22.35;34.71;100871.31;5077924;28;45327;-75
2023/04/24 06:38:38;;;;;;;;;1.00;1.00;;;;;22.36;35.36;100875.63;5077691;28;45293;-75
2023/04/24 06:41:05;;;;;;;;;1.00;1.00;;;;;22.49;34.84;100901.50;5078011;28;45224;-75
2023/04/24 06:43:31;;;;;;;;;1.00;1.00;;;;;22.35;34.71;100881.91;5077807;28;46277;-75
2023/04/24 06:45:57;;;;;;;;;1.67;1.00;;;;;22.38;35.17;100875.44;5077785;27;45494;-76
2023/04/24 06:48:23;;;;;;;;;3.00;1.75;;;;;22.48;35.34;100889.25;5077426;27;45411;-75
2023/04/24 06:50:49;;;;;;;;;3.00;3.00;;;;;22.47;35.34;100892.91;5077702;28;45574;-76
2023/04/24 06:53:14;;;;;;;;;1.00;1.00;;;;;22.45;35.18;100889.63;5058841;28;48204;-75
2023/04/24 06:55:40;;;;;;;;;1.00;1.00;;;;;22.50;35.16;100897.03;5059460;28;45341;-74
2023/04/24 06:58:06;;;;;;;;;2.33;2.00;;;;;22.44;35.01;100882.66;5077835;27;45376;-75
2023/04/24 07:00:31;;;;;;;;;1.00;1.00;;;;;22.49;35.37;100895.38;5077531;27;45387;-76
2023/04/24 07:02:57;;;;;;;;;1.00;1.00;;;;;22.25;35.49;100853.03;5077517;28;46281;-76
2023/04/24 07:05:23;;;;;;;;;1.33;1.33;;;;;22.42;34.97;100873.25;5077631;28;45370;-76
2023/04/24 07:07:49;;;;;;;;;1.00;1.00;;;;;22.46;34.66;100888.59;5077154;28;45368;-75
2023/04/24 07:10:15;;;;;;;;;1.00;1.00;;;;;22.47;35.37;100887.59;5077599;27;45372;-75
2023/04/24 07:12:40;;;;;;;;;1.00;1.00;;;;;22.38;34.59;100881.56;5077297;28;45486;-76
2023/04/24 07:15:07;;;;;;;;;3.00;3.00;;;;;22.51;34.68;100896.84;5077361;28;45431;-75
2023/04/24 07:17:33;;;;;;;;;1.00;1.00;;;;;22.52;35.00;100905.63;5077548;28;45474;-75
2023/04/24 07:19:59;;;;;;;;;2.00;2.00;;;;;22.45;34.98;100891.44;5077357;27;45548;-76
2023/04/24 07:22:24;;;;;;;;;2.00;2.00;;;;;22.52;35.14;100910.91;5058628;28;46060;-76
2023/04/24 07:24:50;;;;;;;;;3.00;1.67;;;;;22.36;34.97;100888.88;5077182;28;45349;-75
2023/04/24 07:27:15;;;;;;;;;2.00;2.00;;;;;22.52;34.72;100908.28;5077271;27;45331;-75
2023/04/24 07:29:40;;;;;;;;;2.00;2.00;;;;;22.47;34.76;100908.00;5077453;27;45387;-75
2023/04/24 07:32:07;;;;;;;;;1.50;1.50;;;;;22.52;35.14;100916.22;5076724;27;46897;-75
2023/04/24 07:34:32;;;;;;;;;2.00;2.00;;;;;22.52;35.40;100913.56;5077066;27;45324;-75
2023/04/24 07:36:58;;;;;;;;;2.00;2.00;;;;;22.50;34.91;100912.94;5076870;28;45321;-75
2023/04/24 07:39:23;;;;;;;;;2.50;1.25;;;;;22.36;35.19;100894.19;5076988;27;45359;-76
2023/04/24 07:41:49;;;;;;;;;1.33;1.33;;;;;22.52;35.38;100926.81;5076988;28;46038;-75
2023/04/24 07:44:14;;;;;;;;;3.75;1.25;;;;;22.39;35.18;100909.72;5076987;27;45375;-76
2023/04/24 07:46:40;;;;;;;;;1.00;1.00;;;;;22.53;34.84;100925.84;5077278;28;45305;-76
2023/04/24 07:49:06;;;;;;;;;3.00;3.00;;;;;22.37;35.27;100895.84;5077243;27;45278;-76
2023/04/24 07:51:33;;;;;;;;;1.67;1.67;;;;;22.52;34.69;100921.53;5076260;28;46867;-75
2023/04/24 07:53:58;;;;;;;;;3.50;2.00;;;;;22.49;35.12;100917.41;5077055;28;45439;-76
2023/04/24 07:56:24;;;;;;;;;1.00;1.00;;;;;22.53;34.82;100923.19;5076942;28;45681;-75
2023/04/24 07:58:49;;;;;;;;;2.00;2.00;;;;;22.44;34.89;100909.19;5076770;27;45571;-75
2023/04/24 08:01:15;;;;;;;;;2.00;2.00;;;;;22.28;34.78;100889.78;5075696;28;45374;-76
2023/04/24 08:03:40;;;;;;;;;2.50;2.00;;;;;22.43;35.08;100904.88;5076438;27;45352;-76
2023/04/24 08:06:06;;;;;;;;;1.33;1.33;;;;;22.53;34.73;100928.50;5076492;28;45418;-75
2023/04/24 08:08:32;;;;;;;;;1.00;1.00;;;;;22.53;35.28;100917.88;5076576;28;45461;-76
2023/04/24 08:10:57;;;;;;;;;2.67;2.67;;;;;22.53;34.76;100917.88;5076301;28;46718;-75
2023/04/24 08:13:22;;;;;;;;;2.50;2.00;;;;;22.47;35.19;100913.28;5076385;28;45480;-76
2023/04/24 08:15:48;;;;;;;;;2.00;2.00;;;;;22.51;35.08;100925.16;5076503;27;45495;-75
2023/04/24 08:18:15;;;;;;;;;3.25;3.00;;;;;22.47;34.72;100915.94;5076399;28;45505;-76
2023/04/24 08:20:41;;;;;;;;;2.33;2.33;;;;;22.52;35.39;100926.81;5075836;28;46619;-76
2023/04/24 08:23:06;;;;;;;;;3.00;2.00;;;;;22.52;35.42;100929.47;5076205;27;45175;-75
2023/04/24 08:25:32;;;;;;;;;2.00;2.00;;;;;22.50;34.63;100934.16;5076502;28;45179;-76
2023/04/24 08:27:57;;;;;;;;;2.00;2.00;;;;;22.54;34.89;100945.19;5076249;27;45306;-75
2023/04/24 08:30:23;;;;;;;;;2.75;2.25;;;;;22.53;35.20;100944.41;5076114;28;47084;-76
2023/04/24 08:32:48;;;;;;;;;2.00;2.00;;;;;22.49;34.73;100941.28;5076041;28;45272;-76
2023/04/24 08:35:13;;;;;;;;;2.33;2.33;;;;;22.46;34.86;100935.50;5075976;27;45284;-76
2023/04/24 08:37:39;;;;;;;;;2.75;2.00;;;;;22.54;34.99;100948.69;5076386;28;45239;-75
2023/04/24 08:40:11;;;;;;;;;2.00;2.00;;;;;22.55;35.43;100947.69;5075874;28;45359;-76
2023/04/24 08:42:38;;;;;;;;;3.00;2.00;;;;;22.46;35.18;100938.16;5076064;27;45436;-75
2023/04/24 08:45:03;;;;;;;;;2.00;2.00;;;;;22.47;35.45;100937.97;5076084;28;45482;-76
2023/04/24 08:47:30;;;;;;;;;3.00;3.00;;;;;22.50;35.14;100947.41;5075913;28;45399;-75
2023/04/24 08:49:57;;;;;;;;;4.67;3.00;;;;;22.49;35.23;100935.13;5075566;27;46191;-75
2023/04/24 08:52:22;;;;;;;;;4.75;2.50;;;;;22.50;34.98;100942.09;5075843;28;45412;-75
2023/04/24 08:54:48;;;;;;;;;3.00;3.00;;;;;22.50;34.98;100942.09;5075865;27;45291;-76
2023/04/24 08:57:14;;;;;;;;;3.00;3.00;;;;;22.56;34.82;100959.91;5075932;27;45562;-75
2023/04/24 08:59:40;;;;;;;;;2.75;2.25;;;;;22.54;35.03;100951.31;5075848;28;46186;-75
2023/04/24 09:02:09;;;;;;;;;4.00;2.75;;;;;22.56;35.36;100967.88;5075551;27;45300;-75
2023/04/24 09:04:35;;;;;;;;;2.25;2.25;;;;;22.56;35.07;100967.06;5057396;28;45407;-75
2023/04/24 09:07:01;;;;;;;;;3.00;3.00;;;;;22.55;35.45;100966.25;5075757;28;45312;-76
2023/04/24 09:09:30;;;;;;;;;2.00;2.00;;;;;22.55;35.23;100960.94;5075475;28;46131;-75
2023/04/24 09:11:57;;;;;;;;;1.00;1.00;;;;;22.48;35.25;100955.53;5076405;27;45478;-75
2023/04/24 09:14:23;;;;;;;;;2.00;2.00;;;;;22.55;34.84;100968.06;5079403;28;45402;-75
2023/04/24 09:16:49;;;;;;;;;2.00;2.00;;;;;22.53;35.08;100962.97;5079290;27;45360;-76
2023/04/24 09:19:15;;;;;;;;;4.00;3.00;;;;;22.56;35.36;100967.06;5078792;27;46290;-76
2023/04/24 09:21:43;;;;;;;;;2.25;2.25;;;;;22.48;35.30;100965.31;5079060;28;45454;-76
2023/04/24 09:24:17;;;;;;;;;2.25;2.25;;;;;22.55;35.32;100979.50;5079359;27;45421;-75
2023/04/24 09:26:43;;;;;;;;;3.50;3.50;;;;;22.54;35.36;100988.44;5079035;27;45446;-76
2023/04/24 09:29:17;;;;;;;;;4.00;3.50;;;;;22.55;35.06;100990.09;5078974;28;46252;-75
2023/04/24 09:31:44;;;;;;;;;3.25;3.25;;;;;22.54;35.59;100985.81;5078747;28;45359;-75
2023/04/24 09:34:10;;;;;;;;;4.25;2.75;;;;;22.47;34.91;100982.22;5078675;27;45319;-76
2023/04/24 09:36:41;;;;;;;;;4.00;3.00;;;;;22.32;35.07;100959.16;5078937;28;45333;-76
2023/04/24 09:39:10;;;;;;;;;3.00;3.00;;;;;22.51;35.68;100986.97;5078610;28;45649;-75
2023/04/24 09:41:44;;;;;;;;;3.00;2.25;;;;;22.41;35.58;100975.81;5078715;27;45392;-75
2023/04/24 09:44:15;;;;;;;;;3.25;2.75;;;;;22.52;35.20;100986.00;5078871;27;45807;-75
2023/04/24 09:46:42;;;;;;;;;3.00;2.50;;;;;22.40;35.49;100966.22;5078936;28;45408;-75
2023/04/24 09:49:15;;;;;;;;;3.00;3.00;;;;;22.51;35.44;100986.97;5078269;27;47467;-76
2023/04/24 09:51:41;;;;;;;;;3.25;2.00;;;;;22.54;35.25;100992.91;5078499;28;45959;-75
2023/04/24 09:54:18;;;;;;;;;3.00;3.00;;;;;22.54;35.27;100991.09;5078670;28;45447;-75
2023/04/24 09:56:45;;;;;;;;;3.00;3.00;;;;;22.52;34.98;100986.00;5078764;28;45356;-76
2023/04/24 09:59:11;;;;;;;;;4.00;2.00;;;;;22.49;35.47;100986.34;5078347;27;47066;-76
2023/04/24 10:01:38;;;;;;;;;4.25;3.25;;;;;22.47;35.58;100991.00;5078029;28;45313;-76
2023/04/24 10:04:04;;;;;;;;;3.00;2.75;;;;;22.48;35.46;100984.69;5078582;28;45367;-75
2023/04/24 10:06:36;;;;;;;;;2.50;2.50;;;;;22.54;35.14;100992.91;5078499;28;45514;-76
2023/04/24 10:09:02;;;;;;;;;2.67;2.67;;;;;22.55;34.87;100992.75;5078280;27;46063;-75
2023/04/24 10:11:27;;;;;;;;;2.50;2.00;;;;;22.55;35.10;100994.59;5078327;27;45442;-76
2023/04/24 10:13:53;;;;;;;;;2.00;2.00;;;;;22.47;34.96;100983.06;5078564;28;45300;-75
2023/04/24 10:16:21;;;;;;;;;4.25;3.25;;;;;22.44;35.58;100979.94;5078051;27;45473;-75
2023/04/24 10:18:48;;;;;;;;;2.67;2.67;;;;;22.55;35.22;101000.72;5078331;28;47151;-75
2023/04/24 10:21:15;;;;;;;;;1.50;1.50;;;;;22.55;35.52;101002.53;5078260;27;45296;-76
2023/04/24 10:23:42;;;;;;;;;2.50;2.50;;;;;22.51;34.92;100997.59;5077444;28;45471;-76
2023/04/24 10:26:09;;;;;;;;;1.00;1.00;;;;;22.37;35.54;100982.47;5078329;28;45359;-76
2023/04/24 10:28:36;;;;;;;;;3.25;2.00;;;;;22.42;35.35;100984.59;5057682;28;46161;-75
2023/04/24 10:31:02;;;;;;;;;3.25;3.25;;;;;22.53;35.49;101008.03;5057382;28;45395;-75
2023/04/24 10:33:29;;;;;;;;;2.00;2.00;;;;;22.48;35.08;100994.50;5074116;28;45408;-76
2023/04/24 10:35:56;;;;;;;;;2.00;2.00;;;;;22.51;35.30;100999.41;5078182;27;45383;-75
2023/04/24 10:38:26;;;;;;;;;3.00;3.00;;;;;22.43;35.03;100983.59;5077749;28;45421;-76
2023/04/24 10:41:06;;;;;;;;;2.50;2.50;;;;;22.39;35.46;100976.00;5077786;27;45396;-75
2023/04/24 10:43:33;;;;;;;;;3.00;3.00;;;;;22.46;35.37;100996.47;5078024;27;45348;-75
2023/04/24 10:46:04;;;;;;;;;2.25;2.25;;;;;22.53;35.11;100997.44;5077526;28;45297;-75
2023/04/24 10:48:30;;;;;;;;;2.50;2.50;;;;;22.52;35.29;100996.59;5077827;27;46170;-74
2023/04/24 10:50:55;;;;;;;;;2.00;2.00;;;;;22.54;35.08;101003.53;5077683;28;45459;-74
2023/04/24 10:53:27;;;;;;;;;4.50;2.00;;;;;22.25;35.54;100958.25;5077757;28;45383;-74
2023/04/24 10:56:02;;;;;;;;;2.25;2.25;;;;;22.49;35.37;100991.66;5077869;28;45388;-74
2023/04/24 10:58:48;;;;;;;;;3.00;3.00;;;;;22.31;35.07;100972.59;5077530;28;45277;-75
2023/04/24 11:01:26;;;;;;;;;4.00;4.00;;;;;22.50;35.54;101003.91;5077248;27;45673;-74
2023/04/24 11:03:56;;;;;;;;;2.75;2.75;;;;;22.55;35.37;101008.66;5077580;28;45317;-74
2023/04/24 11:06:32;;;;;;;;;3.00;2.00;;;;;22.56;35.40;101012.16;5077590;27;45361;-74
2023/04/24 11:09:11;;;;;;;;;1.25;1.25;;;;;22.47;34.88;100990.19;5077252;27;47441;-75
2023/04/24 11:11:40;;;;;;;;;3.25;3.00;;;;;22.57;35.32;101014.63;5058975;28;45968;-74
2023/04/24 11:14:07;;;;;;;;;3.33;3.33;;;;;22.50;34.93;100995.13;5077140;28;45440;-74
2023/04/24 11:16:33;;;;;;;;;4.00;1.00;;;;;22.58;35.13;101010.97;5077502;27;45541;-74
2023/04/24 11:19:17;;;;;;;;;3.00;3.00;;;;;22.60;34.94;101005.47;5077227;27;45302;-75
2023/04/24 11:21:47;;;;;;;;;2.00;2.00;;;;;22.47;34.87;100985.72;5077098;28;45481;-73